SBCG/CGR METAR and TAF weather

Enter ICAO airport designator
Station Type Date Time Source
SBCG METAR 2021/09/28 05:00 UTC NOAA

SBCG 280500Z 09003KT CAVOK 21/18 Q1015


Station Type Date Time Source
SBCG Decoded METAR 2021/09/28 05:00 UTC NOAA

Campo Grande Aeroporto , Brazil (SBCG) 20-28S 054-40W 567M
Sep 28, 2021 - 01:00 AM EDT / 2021.09.28 0500 UTC
Wind: from the E (090 degrees) at 3 MPH (3 KT):0
Visibility: greater than 7 mile(s):0
Temperature: 69 F (21 C)
Dew Point: 64 F (18 C)
Relative Humidity: 82%
Pressure (altimeter): 29.97 in. Hg (1015 hPa)
ob: SBCG 280500Z 09003KT CAVOK 21/18 Q1015
cycle: 5

Station Type Date Time Source
SBCG TAF 2021/09/28 06:16 UTC NOAA

TAF SBCG 280100Z 2806/2906 33005KT CAVOK TN22/2810Z TX35/2817Z
BECMG 2807/2809 04005KT
BECMG 2811/2813 33010KT
BECMG 2814/2816 SCT030
BECMG 2818/2820 CAVOK
BECMG 2901/2903 02002KT
RMK PGN

Example: see airport list